CDT,Max TemperatureF,Mean TemperatureF,Min TemperatureF,Max Dew PointF,MeanDew PointF,Min DewpointF,Max Humidity, Mean Humidity, Min Humidity, Max Sea Level PressureIn, Mean Sea Level PressureIn, Min Sea Level PressureIn, Max VisibilityMiles, Mean VisibilityMiles, Min VisibilityMiles, Max Wind SpeedMPH, Mean Wind SpeedMPH, Max Gust SpeedMPH,PrecipitationIn, CloudCover, Events, WindDirDegrees
2013-4-1,39,26,13,18,13,9,88,59,30,30.40,30.35,30.31,10,10,10,13,5,17,0.00,0,,331
2013-4-2,45,31,16,22,17,11,91,63,35,30.37,30.30,30.19,10,10,10,21,10,26,0.00,0,,91
2013-4-3,69,48,26,34,26,19,85,56,26,30.23,30.06,29.87,10,10,10,29,14,34,0.00,2,,180
2013-4-4,42,33,24,25,23,20,85,63,41,30.31,30.25,30.17,10,10,10,15,9,20,0.00,3,,16
2013-4-5,49,37,24,30,22,12,88,59,29,30.24,29.97,29.74,10,10,10,24,15,30,0.00,4,,119
2013-4-6,49,38,26,34,30,27,100,77,53,29.91,29.75,29.66,10,6,0,23,8,31,0.00,6,Fog,31
2013-4-7,50,41,32,37,32,29,96,79,61,29.91,29.80,29.69,10,8,2,17,9,21,0.07,7,Rain,138
2013-4-8,33,24,15,33,21,8,100,84,67,30.41,30.05,29.73,10,4,0,26,16,33,0.10,8,Fog-Snow,35
2013-4-9,30,22,13,17,11,6,76,63,50,30.52,30.46,30.41,10,10,10,21,13,25,0.00,0,,359
2013-4-10,38,31,24,20,18,16,81,61,40,30.47,30.29,30.12,10,10,10,16,9,20,0.00,5,,29
2013-4-11,40,33,26,28,24,18,92,68,44,30.09,29.93,29.86,10,6,0,22,9,25,0.08,8,Fog-Snow,48
2013-4-12,34,30,25,29,25,22,92,84,75,30.03,29.96,29.90,10,5,1,15,7,19,0.05,8,Snow,5
2013-4-13,43,36,28,31,27,23,100,77,53,29.99,29.84,29.71,10,10,9,25,13,32,T,8,,102
2013-4-14,30,28,26,27,25,23,92,88,84,29.78,29.65,29.58,3,1,0,31,22,37,1.04,8,Fog-Snow,60
2013-4-15,35,32,28,29,27,24,92,81,69,30.13,29.83,29.62,10,6,1,25,14,32,0.01,8,Snow,332
2013-4-16,33,29,25,26,24,22,92,79,66,30.43,30.28,30.12,10,10,10,13,6,14,T,7,Snow,13
2013-4-17,34,28,21,24,22,20,96,80,63,30.44,30.34,30.22,10,10,10,17,8,21,T,7,,18
2013-4-18,35,28,20,21,18,14,84,68,52,30.25,30.16,30.07,10,10,10,23,13,28,0.00,1,,329
2013-4-19,35,27,19,20,17,13,77,60,43,30.16,30.09,30.02,10,10,10,17,9,22,0.00,1,,7
2013-4-20,34,25,15,29,20,10,92,73,53,30.19,30.13,30.00,10,10,10,24,14,28,T,6,,142
2013-4-21,39,34,28,33,28,23,100,82,64,30.29,30.05,29.90,10,9,3,29,14,38,0.07,6,Rain,281
2013-4-22,34,28,22,23,19,14,81,65,49,30.48,30.40,30.24,10,10,10,22,11,26,0.00,6,,345
2013-4-23,47,30,12,26,18,10,88,63,37,30.45,30.25,30.05,10,10,10,24,8,30,0.00,0,,265
2013-4-24,40,31,22,32,27,13,100,68,35,30.15,30.01,29.94,10,5,0,36,13,44,0.07,5,Fog-Rain-Snow,298
2013-4-25,63,41,19,38,27,17,92,62,32,30.14,29.97,29.82,10,10,10,23,8,29,0.00,1,,148
2013-4-26,75,53,31,35,30,25,100,58,15,30.07,30.01,29.92,10,10,10,14,6,17,0.00,0,,224
2013-4-27,81,60,39,41,34,30,64,40,16,30.00,29.85,29.69,10,10,10,22,8,27,0.00,0,,234
2013-4-28,66,49,32,41,32,24,69,46,22,29.95,29.79,29.63,10,10,10,24,12,29,0.00,1,,354
2013-4-29,70,50,29,51,35,23,93,60,26,29.92,29.64,29.42,10,10,4,28,11,35,0.32,4,Rain-Thunderstorm,131
2013-4-30,50,40,30,45,32,22,93,68,42,30.22,29.76,29.49,10,10,10,37,19,48,T,6,,293